イルクーツク の空港の天気 - METARとTAF

イルクーツク国際空港 ( UIII / IKT ) - ロシア イルクーツク
飛行場実況気象(Metar)
観測時間08/17 11:00 IRKT (08/17 03:00 UTC)
風向・風速南南東 5m/s
視程10km以上
天気現象
少しの雲 雲底高度 1010m
気温20℃
湿度73%
気圧1009hPa
METARUIII 170300Z 16005MPS 9999 FEW033 20/15 Q1009 R12/CLRD60 NOSIG RMK QFE715/0953
過去の天気等 Google飛行場航空写真 Wunderground天気予報

過去48時間のMETAR

飛行場予報(TAF)
発表時間: 8/17 10:00 IRKT (8/17 02:00 UTC)
予報対象時間: 17日11時 IRKT ~ 18日11時 IRKT
風向・風速南南東 4m/s
視程10km以上
全天の8割程度の積乱雲 雲底高度 460m
17日14時 IRKT ~ 17日16時 IRKT に徐々に
風向・風速西北西 6m/s
17日14時 IRKT ~ 17日23時 IRKT に一時的に
天気現象弱い雷雨
TAF UIII 170200Z 1703/1803 16004MPS 9999 BKN015CB
BECMG 1706/1708 30006MPS
TEMPO 1706/1715 -TSRA